<?xml version="1.0" encoding="UTF-8" standalone="no" ?>
<gpx xmlns="http://www.topografix.com/GPX/1/1" xmlns:xsi="http://www.w3.org/2001/XMLSchema-instance" xsi:schemaLocation="http://www.topografix.com/GPX/1/1 http://www.topografix.com/GPX/1/1/gpx.xsd" version="1.1" creator="VisuGPX - https://www.visugpx.com">
  <metadata>
    <name>Pic de Crabère J1</name>
    <desc><![CDATA[Première journée d'une boucle de 2 jours au départ du Frechendech.]]></desc>
  </metadata>
  <trk>
    <name><![CDATA[18102002]]></name>
    <trkseg>
      <trkpt lat="42.86797" lon="0.92559">
        <ele>833.864</ele>
        <time>2018-10-20T12:49:48Z</time>
      </trkpt>
      <trkpt lat="42.86845" lon="0.92131">
        <ele>864.104</ele>
        <time>2018-10-20T12:57:02Z</time>
      </trkpt>
      <trkpt lat="42.86852" lon="0.9211">
        <ele>865.763</ele>
        <time>2018-10-20T12:57:32Z</time>
      </trkpt>
      <trkpt lat="42.86864" lon="0.92092">
        <ele>868.994</ele>
        <time>2018-10-20T12:58:02Z</time>
      </trkpt>
      <trkpt lat="42.86867" lon="0.92062">
        <ele>871.876</ele>
        <time>2018-10-20T12:58:32Z</time>
      </trkpt>
      <trkpt lat="42.86867" lon="0.9205">
        <ele>872.47</ele>
        <time>2018-10-20T12:59:02Z</time>
      </trkpt>
      <trkpt lat="42.86864" lon="0.92051">
        <ele>870.346</ele>
        <time>2018-10-20T12:59:32Z</time>
      </trkpt>
      <trkpt lat="42.86864" lon="0.92021">
        <ele>873.764</ele>
        <time>2018-10-20T13:00:02Z</time>
      </trkpt>
      <trkpt lat="42.86863" lon="0.91986">
        <ele>879.388</ele>
        <time>2018-10-20T13:00:32Z</time>
      </trkpt>
      <trkpt lat="42.86865" lon="0.91959">
        <ele>886.339</ele>
        <time>2018-10-20T13:01:02Z</time>
      </trkpt>
      <trkpt lat="42.86864" lon="0.91931">
        <ele>891.688</ele>
        <time>2018-10-20T13:01:32Z</time>
      </trkpt>
      <trkpt lat="42.86864" lon="0.91906">
        <ele>896.511</ele>
        <time>2018-10-20T13:02:02Z</time>
      </trkpt>
      <trkpt lat="42.86858" lon="0.91872">
        <ele>896.162</ele>
        <time>2018-10-20T13:02:32Z</time>
      </trkpt>
      <trkpt lat="42.86856" lon="0.91832">
        <ele>899.533</ele>
        <time>2018-10-20T13:03:02Z</time>
      </trkpt>
      <trkpt lat="42.8685" lon="0.91794">
        <ele>901.066</ele>
        <time>2018-10-20T13:03:32Z</time>
      </trkpt>
      <trkpt lat="42.86849" lon="0.91765">
        <ele>905.302</ele>
        <time>2018-10-20T13:04:02Z</time>
      </trkpt>
      <trkpt lat="42.86841" lon="0.91738">
        <ele>903.646</ele>
        <time>2018-10-20T13:04:32Z</time>
      </trkpt>
      <trkpt lat="42.8683" lon="0.91694">
        <ele>902.56</ele>
        <time>2018-10-20T13:05:02Z</time>
      </trkpt>
      <trkpt lat="42.86823" lon="0.91654">
        <ele>904.648</ele>
        <time>2018-10-20T13:05:32Z</time>
      </trkpt>
      <trkpt lat="42.86827" lon="0.91624">
        <ele>909.53</ele>
        <time>2018-10-20T13:06:02Z</time>
      </trkpt>
      <trkpt lat="42.86824" lon="0.91594">
        <ele>912.501</ele>
        <time>2018-10-20T13:06:32Z</time>
      </trkpt>
      <trkpt lat="42.86818" lon="0.91551">
        <ele>915.98</ele>
        <time>2018-10-20T13:07:02Z</time>
      </trkpt>
      <trkpt lat="42.86805" lon="0.91514">
        <ele>914.804</ele>
        <time>2018-10-20T13:07:32Z</time>
      </trkpt>
      <trkpt lat="42.8679" lon="0.91473">
        <ele>918.594</ele>
        <time>2018-10-20T13:08:02Z</time>
      </trkpt>
      <trkpt lat="42.86773" lon="0.91443">
        <ele>920.748</ele>
        <time>2018-10-20T13:08:32Z</time>
      </trkpt>
      <trkpt lat="42.86751" lon="0.91414">
        <ele>922.768</ele>
        <time>2018-10-20T13:09:02Z</time>
      </trkpt>
      <trkpt lat="42.86717" lon="0.91406">
        <ele>922.573</ele>
        <time>2018-10-20T13:09:32Z</time>
      </trkpt>
      <trkpt lat="42.86688" lon="0.91373">
        <ele>924.298</ele>
        <time>2018-10-20T13:10:02Z</time>
      </trkpt>
      <trkpt lat="42.86659" lon="0.91357">
        <ele>931.929</ele>
        <time>2018-10-20T13:10:32Z</time>
      </trkpt>
      <trkpt lat="42.86639" lon="0.91337">
        <ele>939.399</ele>
        <time>2018-10-20T13:11:02Z</time>
      </trkpt>
      <trkpt lat="42.86643" lon="0.91384">
        <ele>953.693</ele>
        <time>2018-10-20T13:11:32Z</time>
      </trkpt>
      <trkpt lat="42.86644" lon="0.91409">
        <ele>966.865</ele>
        <time>2018-10-20T13:12:02Z</time>
      </trkpt>
      <trkpt lat="42.86649" lon="0.91435">
        <ele>976.004</ele>
        <time>2018-10-20T13:12:32Z</time>
      </trkpt>
      <trkpt lat="42.8666" lon="0.91452">
        <ele>974.66</ele>
        <time>2018-10-20T13:13:02Z</time>
      </trkpt>
      <trkpt lat="42.86664" lon="0.91472">
        <ele>983.764</ele>
        <time>2018-10-20T13:13:32Z</time>
      </trkpt>
      <trkpt lat="42.86662" lon="0.91493">
        <ele>997.222</ele>
        <time>2018-10-20T13:14:02Z</time>
      </trkpt>
      <trkpt lat="42.86673" lon="0.91503">
        <ele>990.61</ele>
        <time>2018-10-20T13:14:32Z</time>
      </trkpt>
      <trkpt lat="42.86673" lon="0.91518">
        <ele>994.752</ele>
        <time>2018-10-20T13:15:02Z</time>
      </trkpt>
      <trkpt lat="42.86669" lon="0.91515">
        <ele>999.179</ele>
        <time>2018-10-20T13:15:32Z</time>
      </trkpt>
      <trkpt lat="42.86648" lon="0.91491">
        <ele>1008.478</ele>
        <time>2018-10-20T13:16:02Z</time>
      </trkpt>
      <trkpt lat="42.86644" lon="0.91474">
        <ele>1002.724</ele>
        <time>2018-10-20T13:16:32Z</time>
      </trkpt>
      <trkpt lat="42.86622" lon="0.91442">
        <ele>1007.302</ele>
        <time>2018-10-20T13:17:02Z</time>
      </trkpt>
      <trkpt lat="42.86595" lon="0.91406">
        <ele>1015.494</ele>
        <time>2018-10-20T13:17:32Z</time>
      </trkpt>
      <trkpt lat="42.86584" lon="0.91361">
        <ele>1004.678</ele>
        <time>2018-10-20T13:18:02Z</time>
      </trkpt>
      <trkpt lat="42.86577" lon="0.91318">
        <ele>998.533</ele>
        <time>2018-10-20T13:18:32Z</time>
      </trkpt>
      <trkpt lat="42.86569" lon="0.91277">
        <ele>995.964</ele>
        <time>2018-10-20T13:19:02Z</time>
      </trkpt>
      <trkpt lat="42.86562" lon="0.91237">
        <ele>1001.789</ele>
        <time>2018-10-20T13:19:32Z</time>
      </trkpt>
      <trkpt lat="42.86564" lon="0.91198">
        <ele>996.189</ele>
        <time>2018-10-20T13:20:02.1Z</time>
      </trkpt>
      <trkpt lat="42.86553" lon="0.91155">
        <ele>1006.298</ele>
        <time>2018-10-20T13:20:32Z</time>
      </trkpt>
      <trkpt lat="42.86542" lon="0.91115">
        <ele>1016.663</ele>
        <time>2018-10-20T13:21:02Z</time>
      </trkpt>
      <trkpt lat="42.86535" lon="0.9107">
        <ele>1017.799</ele>
        <time>2018-10-20T13:21:32Z</time>
      </trkpt>
      <trkpt lat="42.86525" lon="0.91033">
        <ele>1023.587</ele>
        <time>2018-10-20T13:22:02Z</time>
      </trkpt>
      <trkpt lat="42.86507" lon="0.91">
        <ele>1036.112</ele>
        <time>2018-10-20T13:22:32Z</time>
      </trkpt>
      <trkpt lat="42.86496" lon="0.90966">
        <ele>1030.664</ele>
        <time>2018-10-20T13:23:02Z</time>
      </trkpt>
      <trkpt lat="42.86492" lon="0.90928">
        <ele>1025.638</ele>
        <time>2018-10-20T13:23:32Z</time>
      </trkpt>
      <trkpt lat="42.86486" lon="0.90913">
        <ele>1034.38</ele>
        <time>2018-10-20T13:24:02Z</time>
      </trkpt>
      <trkpt lat="42.86484" lon="0.90896">
        <ele>1037.861</ele>
        <time>2018-10-20T13:24:32Z</time>
      </trkpt>
      <trkpt lat="42.86475" lon="0.90875">
        <ele>1046.534</ele>
        <time>2018-10-20T13:25:02Z</time>
      </trkpt>
      <trkpt lat="42.86473" lon="0.90837">
        <ele>1044.2</ele>
        <time>2018-10-20T13:25:32Z</time>
      </trkpt>
      <trkpt lat="42.8647" lon="0.90799">
        <ele>1044.679</ele>
        <time>2018-10-20T13:26:02Z</time>
      </trkpt>
      <trkpt lat="42.86459" lon="0.9076">
        <ele>1048.361</ele>
        <time>2018-10-20T13:26:32Z</time>
      </trkpt>
      <trkpt lat="42.86452" lon="0.90726">
        <ele>1045.595</ele>
        <time>2018-10-20T13:27:02Z</time>
      </trkpt>
      <trkpt lat="42.86437" lon="0.90709">
        <ele>1052.758</ele>
        <time>2018-10-20T13:27:32Z</time>
      </trkpt>
      <trkpt lat="42.86422" lon="0.90682">
        <ele>1053.428</ele>
        <time>2018-10-20T13:28:02Z</time>
      </trkpt>
      <trkpt lat="42.86407" lon="0.90659">
        <ele>1055.144</ele>
        <time>2018-10-20T13:28:32Z</time>
      </trkpt>
      <trkpt lat="42.86383" lon="0.90629">
        <ele>1054.116</ele>
        <time>2018-10-20T13:29:02Z</time>
      </trkpt>
      <trkpt lat="42.8636" lon="0.90614">
        <ele>1056.731</ele>
        <time>2018-10-20T13:29:32Z</time>
      </trkpt>
      <trkpt lat="42.86333" lon="0.90596">
        <ele>1064.082</ele>
        <time>2018-10-20T13:30:02Z</time>
      </trkpt>
      <trkpt lat="42.86308" lon="0.90562">
        <ele>1062.187</ele>
        <time>2018-10-20T13:30:32Z</time>
      </trkpt>
      <trkpt lat="42.86291" lon="0.90534">
        <ele>1059.462</ele>
        <time>2018-10-20T13:31:02Z</time>
      </trkpt>
      <trkpt lat="42.86273" lon="0.90502">
        <ele>1062.967</ele>
        <time>2018-10-20T13:31:32Z</time>
      </trkpt>
      <trkpt lat="42.8627" lon="0.90475">
        <ele>1064.444</ele>
        <time>2018-10-20T13:32:02Z</time>
      </trkpt>
      <trkpt lat="42.8625" lon="0.90434">
        <ele>1081.326</ele>
        <time>2018-10-20T13:32:32Z</time>
      </trkpt>
      <trkpt lat="42.8623" lon="0.90405">
        <ele>1087.276</ele>
        <time>2018-10-20T13:33:02Z</time>
      </trkpt>
      <trkpt lat="42.86215" lon="0.90388">
        <ele>1089.195</ele>
        <time>2018-10-20T13:33:32Z</time>
      </trkpt>
      <trkpt lat="42.86198" lon="0.90384">
        <ele>1098.137</ele>
        <time>2018-10-20T13:34:02.1Z</time>
      </trkpt>
      <trkpt lat="42.86177" lon="0.90365">
        <ele>1098.653</ele>
        <time>2018-10-20T13:34:32Z</time>
      </trkpt>
      <trkpt lat="42.86139" lon="0.90354">
        <ele>1102.942</ele>
        <time>2018-10-20T13:35:02Z</time>
      </trkpt>
      <trkpt lat="42.86112" lon="0.90348">
        <ele>1102.434</ele>
        <time>2018-10-20T13:35:32Z</time>
      </trkpt>
      <trkpt lat="42.86088" lon="0.90347">
        <ele>1105.507</ele>
        <time>2018-10-20T13:36:02Z</time>
      </trkpt>
      <trkpt lat="42.86087" lon="0.90337">
        <ele>1097.677</ele>
        <time>2018-10-20T13:36:32Z</time>
      </trkpt>
      <trkpt lat="42.86105" lon="0.90346">
        <ele>1102.306</ele>
        <time>2018-10-20T13:37:02Z</time>
      </trkpt>
      <trkpt lat="42.86108" lon="0.9034">
        <ele>1096.831</ele>
        <time>2018-10-20T13:37:32Z</time>
      </trkpt>
      <trkpt lat="42.86103" lon="0.90338">
        <ele>1095.913</ele>
        <time>2018-10-20T13:38:02Z</time>
      </trkpt>
      <trkpt lat="42.86057" lon="0.90331">
        <ele>1102.833</ele>
        <time>2018-10-20T13:38:32Z</time>
      </trkpt>
      <trkpt lat="42.8602" lon="0.90303">
        <ele>1101.216</ele>
        <time>2018-10-20T13:39:02Z</time>
      </trkpt>
      <trkpt lat="42.85994" lon="0.90294">
        <ele>1105.353</ele>
        <time>2018-10-20T13:39:32Z</time>
      </trkpt>
      <trkpt lat="42.85972" lon="0.90283">
        <ele>1103.88</ele>
        <time>2018-10-20T13:40:02Z</time>
      </trkpt>
      <trkpt lat="42.85953" lon="0.90294">
        <ele>1113.702</ele>
        <time>2018-10-20T13:40:32Z</time>
      </trkpt>
      <trkpt lat="42.85933" lon="0.90287">
        <ele>1112.864</ele>
        <time>2018-10-20T13:41:02Z</time>
      </trkpt>
      <trkpt lat="42.85922" lon="0.90284">
        <ele>1113.182</ele>
        <time>2018-10-20T13:41:32Z</time>
      </trkpt>
      <trkpt lat="42.85917" lon="0.90286">
        <ele>1116.256</ele>
        <time>2018-10-20T13:42:02Z</time>
      </trkpt>
      <trkpt lat="42.85914" lon="0.90283">
        <ele>1114.715</ele>
        <time>2018-10-20T13:42:32Z</time>
      </trkpt>
      <trkpt lat="42.85916" lon="0.90285">
        <ele>1116.042</ele>
        <time>2018-10-20T13:43:02Z</time>
      </trkpt>
      <trkpt lat="42.85918" lon="0.90293">
        <ele>1121.781</ele>
        <time>2018-10-20T13:43:32Z</time>
      </trkpt>
      <trkpt lat="42.85917" lon="0.90286">
        <ele>1116.18</ele>
        <time>2018-10-20T13:44:02Z</time>
      </trkpt>
      <trkpt lat="42.85914" lon="0.90289">
        <ele>1119.511</ele>
        <time>2018-10-20T13:44:32Z</time>
      </trkpt>
      <trkpt lat="42.85913" lon="0.90287">
        <ele>1118.975</ele>
        <time>2018-10-20T13:45:02Z</time>
      </trkpt>
      <trkpt lat="42.85907" lon="0.90296">
        <ele>1127.964</ele>
        <time>2018-10-20T13:45:32Z</time>
      </trkpt>
      <trkpt lat="42.85905" lon="0.90295">
        <ele>1128.005</ele>
        <time>2018-10-20T13:46:02Z</time>
      </trkpt>
      <trkpt lat="42.85918" lon="0.90269">
        <ele>1110.152</ele>
        <time>2018-10-20T13:46:32Z</time>
      </trkpt>
      <trkpt lat="42.85897" lon="0.90275">
        <ele>1116.788</ele>
        <time>2018-10-20T13:47:02Z</time>
      </trkpt>
      <trkpt lat="42.85865" lon="0.90257">
        <ele>1119.749</ele>
        <time>2018-10-20T13:47:32Z</time>
      </trkpt>
      <trkpt lat="42.85833" lon="0.90253">
        <ele>1129.959</ele>
        <time>2018-10-20T13:48:02Z</time>
      </trkpt>
      <trkpt lat="42.85804" lon="0.90239">
        <ele>1134.84</ele>
        <time>2018-10-20T13:48:32Z</time>
      </trkpt>
      <trkpt lat="42.85783" lon="0.90202">
        <ele>1128.294</ele>
        <time>2018-10-20T13:49:02Z</time>
      </trkpt>
      <trkpt lat="42.85768" lon="0.9017">
        <ele>1123.358</ele>
        <time>2018-10-20T13:49:32Z</time>
      </trkpt>
      <trkpt lat="42.85763" lon="0.90134">
        <ele>1128.272</ele>
        <time>2018-10-20T13:50:02Z</time>
      </trkpt>
      <trkpt lat="42.85759" lon="0.90092">
        <ele>1142.924</ele>
        <time>2018-10-20T13:50:32Z</time>
      </trkpt>
      <trkpt lat="42.85754" lon="0.90054">
        <ele>1152.948</ele>
        <time>2018-10-20T13:51:02Z</time>
      </trkpt>
      <trkpt lat="42.85746" lon="0.90023">
        <ele>1150.642</ele>
        <time>2018-10-20T13:51:32Z</time>
      </trkpt>
      <trkpt lat="42.85751" lon="0.89988">
        <ele>1147.7</ele>
        <time>2018-10-20T13:52:02Z</time>
      </trkpt>
      <trkpt lat="42.85752" lon="0.89977">
        <ele>1147.428</ele>
        <time>2018-10-20T13:52:32Z</time>
      </trkpt>
      <trkpt lat="42.85754" lon="0.89953">
        <ele>1149.656</ele>
        <time>2018-10-20T13:53:02Z</time>
      </trkpt>
      <trkpt lat="42.85748" lon="0.89926">
        <ele>1150.663</ele>
        <time>2018-10-20T13:53:32Z</time>
      </trkpt>
      <trkpt lat="42.85747" lon="0.89883">
        <ele>1157.637</ele>
        <time>2018-10-20T13:54:02Z</time>
      </trkpt>
      <trkpt lat="42.85743" lon="0.89841">
        <ele>1160.798</ele>
        <time>2018-10-20T13:54:32Z</time>
      </trkpt>
      <trkpt lat="42.85743" lon="0.89811">
        <ele>1164.774</ele>
        <time>2018-10-20T13:55:02Z</time>
      </trkpt>
      <trkpt lat="42.85737" lon="0.89776">
        <ele>1163.945</ele>
        <time>2018-10-20T13:55:32Z</time>
      </trkpt>
      <trkpt lat="42.8574" lon="0.89733">
        <ele>1170.6</ele>
        <time>2018-10-20T13:56:02Z</time>
      </trkpt>
      <trkpt lat="42.8574" lon="0.89726">
        <ele>1171.157</ele>
        <time>2018-10-20T13:56:32Z</time>
      </trkpt>
      <trkpt lat="42.85739" lon="0.89716">
        <ele>1171.1</ele>
        <time>2018-10-20T13:57:02Z</time>
      </trkpt>
      <trkpt lat="42.85731" lon="0.89723">
        <ele>1162.995</ele>
        <time>2018-10-20T13:57:32Z</time>
      </trkpt>
      <trkpt lat="42.85731" lon="0.89725">
        <ele>1162.857</ele>
        <time>2018-10-20T13:58:02Z</time>
      </trkpt>
      <trkpt lat="42.85736" lon="0.8973">
        <ele>1166.903</ele>
        <time>2018-10-20T13:58:32Z</time>
      </trkpt>
      <trkpt lat="42.85738" lon="0.89732">
        <ele>1169.064</ele>
        <time>2018-10-20T13:59:02Z</time>
      </trkpt>
      <trkpt lat="42.85738" lon="0.89735">
        <ele>1168.862</ele>
        <time>2018-10-20T13:59:32Z</time>
      </trkpt>
      <trkpt lat="42.85738" lon="0.89731">
        <ele>1168.833</ele>
        <time>2018-10-20T14:00:02Z</time>
      </trkpt>
      <trkpt lat="42.85737" lon="0.89731">
        <ele>1168.371</ele>
        <time>2018-10-20T14:00:32Z</time>
      </trkpt>
      <trkpt lat="42.85738" lon="0.89732">
        <ele>1169.172</ele>
        <time>2018-10-20T14:01:02Z</time>
      </trkpt>
      <trkpt lat="42.8574" lon="0.89735">
        <ele>1170.166</ele>
        <time>2018-10-20T14:01:32Z</time>
      </trkpt>
      <trkpt lat="42.85735" lon="0.89734">
        <ele>1165.501</ele>
        <time>2018-10-20T14:02:02Z</time>
      </trkpt>
      <trkpt lat="42.85729" lon="0.8974">
        <ele>1159.644</ele>
        <time>2018-10-20T14:02:32Z</time>
      </trkpt>
      <trkpt lat="42.85728" lon="0.89733">
        <ele>1159.424</ele>
        <time>2018-10-20T14:03:02Z</time>
      </trkpt>
      <trkpt lat="42.8573" lon="0.89735">
        <ele>1161.412</ele>
        <time>2018-10-20T14:03:32Z</time>
      </trkpt>
      <trkpt lat="42.85735" lon="0.89724">
        <ele>1166.321</ele>
        <time>2018-10-20T14:04:02Z</time>
      </trkpt>
      <trkpt lat="42.85741" lon="0.89683">
        <ele>1176.692</ele>
        <time>2018-10-20T14:04:32Z</time>
      </trkpt>
      <trkpt lat="42.85739" lon="0.89645">
        <ele>1179.83</ele>
        <time>2018-10-20T14:05:02Z</time>
      </trkpt>
      <trkpt lat="42.85741" lon="0.8961">
        <ele>1186.173</ele>
        <time>2018-10-20T14:05:32Z</time>
      </trkpt>
      <trkpt lat="42.85739" lon="0.89577">
        <ele>1189.115</ele>
        <time>2018-10-20T14:06:02Z</time>
      </trkpt>
      <trkpt lat="42.85731" lon="0.89559">
        <ele>1185.388</ele>
        <time>2018-10-20T14:06:32Z</time>
      </trkpt>
      <trkpt lat="42.85732" lon="0.89526">
        <ele>1193.18</ele>
        <time>2018-10-20T14:07:02Z</time>
      </trkpt>
      <trkpt lat="42.85734" lon="0.89491">
        <ele>1201.102</ele>
        <time>2018-10-20T14:07:32Z</time>
      </trkpt>
      <trkpt lat="42.85728" lon="0.89459">
        <ele>1203.175</ele>
        <time>2018-10-20T14:08:02Z</time>
      </trkpt>
      <trkpt lat="42.8573" lon="0.89425">
        <ele>1209.356</ele>
        <time>2018-10-20T14:08:32Z</time>
      </trkpt>
      <trkpt lat="42.8573" lon="0.89383">
        <ele>1213.032</ele>
        <time>2018-10-20T14:09:02Z</time>
      </trkpt>
      <trkpt lat="42.8573" lon="0.89348">
        <ele>1217.148</ele>
        <time>2018-10-20T14:09:32Z</time>
      </trkpt>
      <trkpt lat="42.85722" lon="0.89326">
        <ele>1215.348</ele>
        <time>2018-10-20T14:10:02Z</time>
      </trkpt>
      <trkpt lat="42.8571" lon="0.89298">
        <ele>1218.769</ele>
        <time>2018-10-20T14:10:32Z</time>
      </trkpt>
      <trkpt lat="42.85693" lon="0.89278">
        <ele>1219.765</ele>
        <time>2018-10-20T14:11:02Z</time>
      </trkpt>
      <trkpt lat="42.85682" lon="0.89256">
        <ele>1227.316</ele>
        <time>2018-10-20T14:11:32Z</time>
      </trkpt>
      <trkpt lat="42.85673" lon="0.89223">
        <ele>1237.46</ele>
        <time>2018-10-20T14:12:02Z</time>
      </trkpt>
      <trkpt lat="42.85669" lon="0.89203">
        <ele>1241.306</ele>
        <time>2018-10-20T14:12:32Z</time>
      </trkpt>
      <trkpt lat="42.85669" lon="0.89185">
        <ele>1244.879</ele>
        <time>2018-10-20T14:13:02Z</time>
      </trkpt>
      <trkpt lat="42.85651" lon="0.8916">
        <ele>1243.016</ele>
        <time>2018-10-20T14:13:32Z</time>
      </trkpt>
      <trkpt lat="42.85656" lon="0.89129">
        <ele>1248.634</ele>
        <time>2018-10-20T14:14:02Z</time>
      </trkpt>
      <trkpt lat="42.85659" lon="0.89103">
        <ele>1252.41</ele>
        <time>2018-10-20T14:14:32Z</time>
      </trkpt>
      <trkpt lat="42.85654" lon="0.89073">
        <ele>1253.762</ele>
        <time>2018-10-20T14:15:02Z</time>
      </trkpt>
      <trkpt lat="42.8566" lon="0.89096">
        <ele>1253.401</ele>
        <time>2018-10-20T14:15:32Z</time>
      </trkpt>
      <trkpt lat="42.85682" lon="0.89118">
        <ele>1256.983</ele>
        <time>2018-10-20T14:16:02Z</time>
      </trkpt>
      <trkpt lat="42.85702" lon="0.89125">
        <ele>1261.833</ele>
        <time>2018-10-20T14:16:32Z</time>
      </trkpt>
      <trkpt lat="42.85712" lon="0.89145">
        <ele>1262.215</ele>
        <time>2018-10-20T14:17:02Z</time>
      </trkpt>
      <trkpt lat="42.85719" lon="0.89114">
        <ele>1270.939</ele>
        <time>2018-10-20T14:17:32Z</time>
      </trkpt>
      <trkpt lat="42.85721" lon="0.89085">
        <ele>1277.274</ele>
        <time>2018-10-20T14:18:02Z</time>
      </trkpt>
      <trkpt lat="42.85717" lon="0.89073">
        <ele>1277.311</ele>
        <time>2018-10-20T14:18:32Z</time>
      </trkpt>
      <trkpt lat="42.85713" lon="0.89039">
        <ele>1281.13</ele>
        <time>2018-10-20T14:19:02Z</time>
      </trkpt>
      <trkpt lat="42.85712" lon="0.89035">
        <ele>1281.508</ele>
        <time>2018-10-20T14:19:32Z</time>
      </trkpt>
      <trkpt lat="42.85733" lon="0.89062">
        <ele>1287.78</ele>
        <time>2018-10-20T14:20:02Z</time>
      </trkpt>
      <trkpt lat="42.85752" lon="0.89065">
        <ele>1296.787</ele>
        <time>2018-10-20T14:20:32Z</time>
      </trkpt>
      <trkpt lat="42.85752" lon="0.89026">
        <ele>1305.176</ele>
        <time>2018-10-20T14:21:02Z</time>
      </trkpt>
      <trkpt lat="42.8575" lon="0.88993">
        <ele>1311.414</ele>
        <time>2018-10-20T14:21:32Z</time>
      </trkpt>
      <trkpt lat="42.85747" lon="0.8897">
        <ele>1314.504</ele>
        <time>2018-10-20T14:22:02Z</time>
      </trkpt>
      <trkpt lat="42.85743" lon="0.88941">
        <ele>1317.54</ele>
        <time>2018-10-20T14:22:32Z</time>
      </trkpt>
      <trkpt lat="42.8574" lon="0.88908">
        <ele>1321.016</ele>
        <time>2018-10-20T14:23:02Z</time>
      </trkpt>
      <trkpt lat="42.85732" lon="0.88892">
        <ele>1317.981</ele>
        <time>2018-10-20T14:23:32Z</time>
      </trkpt>
      <trkpt lat="42.85724" lon="0.88892">
        <ele>1313.042</ele>
        <time>2018-10-20T14:24:02Z</time>
      </trkpt>
      <trkpt lat="42.85726" lon="0.88893">
        <ele>1313.719</ele>
        <time>2018-10-20T14:24:32Z</time>
      </trkpt>
      <trkpt lat="42.85728" lon="0.88891">
        <ele>1315.373</ele>
        <time>2018-10-20T14:25:02Z</time>
      </trkpt>
      <trkpt lat="42.85728" lon="0.8889">
        <ele>1315.762</ele>
        <time>2018-10-20T14:25:32Z</time>
      </trkpt>
      <trkpt lat="42.85723" lon="0.88893">
        <ele>1311.753</ele>
        <time>2018-10-20T14:26:02Z</time>
      </trkpt>
      <trkpt lat="42.85732" lon="0.88863">
        <ele>1321.728</ele>
        <time>2018-10-20T14:26:32Z</time>
      </trkpt>
      <trkpt lat="42.85732" lon="0.88826">
        <ele>1323.808</ele>
        <time>2018-10-20T14:27:02Z</time>
      </trkpt>
      <trkpt lat="42.85729" lon="0.88828">
        <ele>1321.36</ele>
        <time>2018-10-20T14:27:32Z</time>
      </trkpt>
      <trkpt lat="42.85722" lon="0.8883">
        <ele>1316.329</ele>
        <time>2018-10-20T14:28:02Z</time>
      </trkpt>
      <trkpt lat="42.85726" lon="0.88814">
        <ele>1321.264</ele>
        <time>2018-10-20T14:30:02Z</time>
      </trkpt>
      <trkpt lat="42.85732" lon="0.88816">
        <ele>1325.368</ele>
        <time>2018-10-20T14:30:32Z</time>
      </trkpt>
      <trkpt lat="42.85727" lon="0.88822">
        <ele>1321.168</ele>
        <time>2018-10-20T14:31:02Z</time>
      </trkpt>
      <trkpt lat="42.85732" lon="0.888">
        <ele>1327.842</ele>
        <time>2018-10-20T14:31:32Z</time>
      </trkpt>
      <trkpt lat="42.85732" lon="0.88782">
        <ele>1331.687</ele>
        <time>2018-10-20T14:32:02Z</time>
      </trkpt>
      <trkpt lat="42.85729" lon="0.88754">
        <ele>1336.769</ele>
        <time>2018-10-20T14:32:32Z</time>
      </trkpt>
      <trkpt lat="42.85718" lon="0.88723">
        <ele>1340.502</ele>
        <time>2018-10-20T14:33:02Z</time>
      </trkpt>
      <trkpt lat="42.85711" lon="0.88692">
        <ele>1348.547</ele>
        <time>2018-10-20T14:33:32Z</time>
      </trkpt>
      <trkpt lat="42.85704" lon="0.88659">
        <ele>1355.03</ele>
        <time>2018-10-20T14:34:02Z</time>
      </trkpt>
      <trkpt lat="42.85688" lon="0.88624">
        <ele>1356.436</ele>
        <time>2018-10-20T14:34:32Z</time>
      </trkpt>
      <trkpt lat="42.85676" lon="0.88591">
        <ele>1357.471</ele>
        <time>2018-10-20T14:35:02Z</time>
      </trkpt>
      <trkpt lat="42.85671" lon="0.88563">
        <ele>1359.139</ele>
        <time>2018-10-20T14:35:32Z</time>
      </trkpt>
      <trkpt lat="42.85666" lon="0.88532">
        <ele>1362.248</ele>
        <time>2018-10-20T14:36:02Z</time>
      </trkpt>
      <trkpt lat="42.85659" lon="0.88505">
        <ele>1361.706</ele>
        <time>2018-10-20T14:36:32Z</time>
      </trkpt>
      <trkpt lat="42.85657" lon="0.88467">
        <ele>1365.966</ele>
        <time>2018-10-20T14:37:02Z</time>
      </trkpt>
      <trkpt lat="42.8565" lon="0.88432">
        <ele>1368.318</ele>
        <time>2018-10-20T14:37:32Z</time>
      </trkpt>
      <trkpt lat="42.85645" lon="0.88404">
        <ele>1369.991</ele>
        <time>2018-10-20T14:38:02Z</time>
      </trkpt>
      <trkpt lat="42.85646" lon="0.88373">
        <ele>1376.044</ele>
        <time>2018-10-20T14:38:32Z</time>
      </trkpt>
      <trkpt lat="42.85639" lon="0.88337">
        <ele>1375.852</ele>
        <time>2018-10-20T14:39:02Z</time>
      </trkpt>
      <trkpt lat="42.85634" lon="0.88303">
        <ele>1380.816</ele>
        <time>2018-10-20T14:39:32Z</time>
      </trkpt>
      <trkpt lat="42.85629" lon="0.88266">
        <ele>1384.667</ele>
        <time>2018-10-20T14:40:02Z</time>
      </trkpt>
      <trkpt lat="42.85629" lon="0.88234">
        <ele>1385.185</ele>
        <time>2018-10-20T14:40:32Z</time>
      </trkpt>
      <trkpt lat="42.85624" lon="0.88231">
        <ele>1381.118</ele>
        <time>2018-10-20T14:41:02Z</time>
      </trkpt>
      <trkpt lat="42.85628" lon="0.88226">
        <ele>1383.527</ele>
        <time>2018-10-20T14:41:32Z</time>
      </trkpt>
      <trkpt lat="42.85649" lon="0.8821">
        <ele>1389.904</ele>
        <time>2018-10-20T14:42:02Z</time>
      </trkpt>
      <trkpt lat="42.85669" lon="0.88193">
        <ele>1389.835</ele>
        <time>2018-10-20T14:42:32Z</time>
      </trkpt>
      <trkpt lat="42.85707" lon="0.88173">
        <ele>1393.038</ele>
        <time>2018-10-20T14:43:02Z</time>
      </trkpt>
      <trkpt lat="42.85726" lon="0.88137">
        <ele>1392.947</ele>
        <time>2018-10-20T14:43:32Z</time>
      </trkpt>
      <trkpt lat="42.85743" lon="0.88129">
        <ele>1396.72</ele>
        <time>2018-10-20T14:44:02Z</time>
      </trkpt>
      <trkpt lat="42.85744" lon="0.88131">
        <ele>1397.369</ele>
        <time>2018-10-20T14:44:32Z</time>
      </trkpt>
      <trkpt lat="42.85736" lon="0.8812">
        <ele>1393.915</ele>
        <time>2018-10-20T14:45:02Z</time>
      </trkpt>
      <trkpt lat="42.85738" lon="0.88124">
        <ele>1394.965</ele>
        <time>2018-10-20T14:45:32Z</time>
      </trkpt>
      <trkpt lat="42.85728" lon="0.88123">
        <ele>1392.187</ele>
        <time>2018-10-20T14:46:02Z</time>
      </trkpt>
      <trkpt lat="42.85714" lon="0.88134">
        <ele>1389.28</ele>
        <time>2018-10-20T14:46:32Z</time>
      </trkpt>
      <trkpt lat="42.85723" lon="0.88129">
        <ele>1391.337</ele>
        <time>2018-10-20T14:47:02Z</time>
      </trkpt>
      <trkpt lat="42.85724" lon="0.88136">
        <ele>1392.35</ele>
        <time>2018-10-20T14:47:32Z</time>
      </trkpt>
      <trkpt lat="42.85729" lon="0.88132">
        <ele>1393.41</ele>
        <time>2018-10-20T14:48:02Z</time>
      </trkpt>
      <trkpt lat="42.85745" lon="0.8813">
        <ele>1397.198</ele>
        <time>2018-10-20T14:48:32Z</time>
      </trkpt>
      <trkpt lat="42.85742" lon="0.88121">
        <ele>1395.613</ele>
        <time>2018-10-20T14:49:02Z</time>
      </trkpt>
      <trkpt lat="42.8574" lon="0.88126">
        <ele>1395.49</ele>
        <time>2018-10-20T14:49:32Z</time>
      </trkpt>
      <trkpt lat="42.85738" lon="0.88117">
        <ele>1393.958</ele>
        <time>2018-10-20T14:50:02Z</time>
      </trkpt>
      <trkpt lat="42.85738" lon="0.88122">
        <ele>1394.54</ele>
        <time>2018-10-20T14:50:32Z</time>
      </trkpt>
      <trkpt lat="42.85737" lon="0.88123">
        <ele>1394.458</ele>
        <time>2018-10-20T14:51:02Z</time>
      </trkpt>
      <trkpt lat="42.85735" lon="0.88128">
        <ele>1394.587</ele>
        <time>2018-10-20T14:51:32Z</time>
      </trkpt>
      <trkpt lat="42.85737" lon="0.88126">
        <ele>1394.895</ele>
        <time>2018-10-20T14:52:02Z</time>
      </trkpt>
      <trkpt lat="42.85739" lon="0.88117">
        <ele>1394.42</ele>
        <time>2018-10-20T14:52:32Z</time>
      </trkpt>
      <trkpt lat="42.85736" lon="0.88121">
        <ele>1394.059</ele>
        <time>2018-10-20T14:53:02Z</time>
      </trkpt>
      <trkpt lat="42.85733" lon="0.8813">
        <ele>1394.249</ele>
        <time>2018-10-20T14:53:32Z</time>
      </trkpt>
      <trkpt lat="42.85736" lon="0.88132">
        <ele>1395.235</ele>
        <time>2018-10-20T14:54:02Z</time>
      </trkpt>
      <trkpt lat="42.85738" lon="0.88132">
        <ele>1395.71</ele>
        <time>2018-10-20T14:54:32Z</time>
      </trkpt>
      <trkpt lat="42.8574" lon="0.88129">
        <ele>1395.869</ele>
        <time>2018-10-20T14:55:02Z</time>
      </trkpt>
      <trkpt lat="42.85738" lon="0.88131">
        <ele>1395.653</ele>
        <time>2018-10-20T14:55:32Z</time>
      </trkpt>
      <trkpt lat="42.85727" lon="0.8817">
        <ele>1398.648</ele>
        <time>2018-10-20T14:56:02Z</time>
      </trkpt>
      <trkpt lat="42.85718" lon="0.8821">
        <ele>1404.426</ele>
        <time>2018-10-20T14:56:32Z</time>
      </trkpt>
      <trkpt lat="42.85704" lon="0.88248">
        <ele>1409.644</ele>
        <time>2018-10-20T14:57:02Z</time>
      </trkpt>
      <trkpt lat="42.85695" lon="0.88286">
        <ele>1411.716</ele>
        <time>2018-10-20T14:57:32Z</time>
      </trkpt>
      <trkpt lat="42.8571" lon="0.88306">
        <ele>1415.71</ele>
        <time>2018-10-20T14:58:02Z</time>
      </trkpt>
      <trkpt lat="42.85728" lon="0.88327">
        <ele>1419.568</ele>
        <time>2018-10-20T14:58:32Z</time>
      </trkpt>
      <trkpt lat="42.85747" lon="0.88327">
        <ele>1425.232</ele>
        <time>2018-10-20T14:59:02Z</time>
      </trkpt>
      <trkpt lat="42.85765" lon="0.8832">
        <ele>1430.674</ele>
        <time>2018-10-20T14:59:32Z</time>
      </trkpt>
      <trkpt lat="42.85787" lon="0.88332">
        <ele>1436.892</ele>
        <time>2018-10-20T15:00:02Z</time>
      </trkpt>
      <trkpt lat="42.85807" lon="0.88345">
        <ele>1442.548</ele>
        <time>2018-10-20T15:00:32Z</time>
      </trkpt>
      <trkpt lat="42.8582" lon="0.88354">
        <ele>1446.503</ele>
        <time>2018-10-20T15:01:02Z</time>
      </trkpt>
      <trkpt lat="42.85833" lon="0.88385">
        <ele>1450.158</ele>
        <time>2018-10-20T15:01:32Z</time>
      </trkpt>
      <trkpt lat="42.85853" lon="0.88408">
        <ele>1458.28</ele>
        <time>2018-10-20T15:02:02Z</time>
      </trkpt>
      <trkpt lat="42.85862" lon="0.8845">
        <ele>1462.936</ele>
        <time>2018-10-20T15:02:32Z</time>
      </trkpt>
      <trkpt lat="42.85885" lon="0.8847">
        <ele>1471.648</ele>
        <time>2018-10-20T15:03:02Z</time>
      </trkpt>
      <trkpt lat="42.85912" lon="0.88495">
        <ele>1477.471</ele>
        <time>2018-10-20T15:03:32Z</time>
      </trkpt>
      <trkpt lat="42.85937" lon="0.88527">
        <ele>1480.13</ele>
        <time>2018-10-20T15:04:02Z</time>
      </trkpt>
      <trkpt lat="42.85962" lon="0.8856">
        <ele>1483.283</ele>
        <time>2018-10-20T15:04:32Z</time>
      </trkpt>
      <trkpt lat="42.8598" lon="0.88595">
        <ele>1489.023</ele>
        <time>2018-10-20T15:05:02Z</time>
      </trkpt>
      <trkpt lat="42.85991" lon="0.88606">
        <ele>1494.259</ele>
        <time>2018-10-20T15:05:32Z</time>
      </trkpt>
      <trkpt lat="42.8599" lon="0.88611">
        <ele>1494.45</ele>
        <time>2018-10-20T15:06:02Z</time>
      </trkpt>
      <trkpt lat="42.85985" lon="0.88608">
        <ele>1491.894</ele>
        <time>2018-10-20T15:06:32Z</time>
      </trkpt>
      <trkpt lat="42.85989" lon="0.88605">
        <ele>1493.241</ele>
        <time>2018-10-20T15:07:02Z</time>
      </trkpt>
      <trkpt lat="42.85988" lon="0.88602">
        <ele>1492.803</ele>
        <time>2018-10-20T15:07:32Z</time>
      </trkpt>
      <trkpt lat="42.85989" lon="0.886">
        <ele>1493.267</ele>
        <time>2018-10-20T15:08:02Z</time>
      </trkpt>
      <trkpt lat="42.85984" lon="0.88602">
        <ele>1490.876</ele>
        <time>2018-10-20T15:08:32Z</time>
      </trkpt>
      <trkpt lat="42.85993" lon="0.88605">
        <ele>1495.503</ele>
        <time>2018-10-20T15:09:02Z</time>
      </trkpt>
    </trkseg>
  </trk>
</gpx>